Time;durP1;ratioP1;P1;durP2;ratioP2;P2;SDS_P1;SDS_P2;PMS_P1;PMS_P2;Temp;Humidity;BMP_temperature;BMP_pressure;BME280_temperature;BME280_humidity;BME280_pressure;Samples;Min_cycle;Max_cycle;Signal;HPM_P1;HPM_P2
2022/12/03 00:01:59;;;;;;;12.57;11.30;;;;;;;5.37;100.00;22000.84;5072663;28;20575;-63
2022/12/03 00:04:26;;;;;;;14.17;11.53;;;;;;;5.34;100.00;22318.78;5071980;28;20185;-63
2022/12/03 00:06:53;;;;;;;12.47;11.17;;;;;;;5.39;100.00;21363.78;5072333;28;20212;-63
2022/12/03 00:09:20;;;;;;;12.53;11.30;;;;;;;5.28;100.00;21678.25;5072268;28;20692;-63
2022/12/03 00:11:46;;;;;;;12.43;11.33;;;;;;;5.28;100.00;21040.53;5072113;28;20247;-62
2022/12/03 00:14:13;;;;;;;12.10;11.00;;;;;;;5.28;100.00;21040.53;5072312;28;20278;-63
2022/12/03 00:16:40;;;;;;;12.70;11.47;;;;;;;5.22;100.00;22313.59;5071646;28;20223;-63
2022/12/03 00:19:08;;;;;;;13.77;11.43;;;;;;;5.24;100.00;19763.97;5071856;28;20192;-63
2022/12/03 00:21:35;;;;;;;13.73;11.23;;;;;;;5.28;100.00;19765.66;5071965;28;20189;-63
2022/12/03 00:24:02;;;;;;;12.10;10.90;;;;;;;5.30;100.00;20084.94;5072136;28;20185;-62
2022/12/03 00:26:29;;;;;;;13.30;10.80;;;;;;;5.36;100.00;19768.47;5071731;28;20563;-63
2022/12/03 00:28:56;;;;;;;11.63;10.63;;;;;;;5.40;100.00;21364.19;5072069;28;20189;-63
2022/12/03 00:31:23;;;;;;;10.87;10.00;;;;;;;5.38;100.00;22958.53;5072246;28;20565;-63
2022/12/03 00:33:50;;;;;;;10.80;9.93;;;;;;;5.34;100.00;24871.41;5071914;28;20188;-63
2022/12/03 00:36:19;;;;;;;10.90;10.00;;;;;;;5.22;100.00;24865.91;5071816;28;20258;-62
2022/12/03 00:38:46;;;;;;;10.47;9.57;;;;;;;5.41;100.00;23278.69;5072155;28;20192;-62
2022/12/03 00:41:13;;;;;;;11.17;10.17;;;;;;;5.45;100.00;23918.97;5070520;28;20188;-63
2022/12/03 00:43:40;;;;;;;12.37;11.10;;;;;;;5.42;100.00;24236.84;5071526;28;20188;-64
2022/12/03 00:46:06;;;;;;;11.60;10.57;;;;;;;5.35;100.00;24871.88;5071919;28;20686;-63
2022/12/03 00:48:33;;;;;;;13.37;11.13;;;;;;;5.32;100.00;22636.75;5072042;28;20204;-62
2022/12/03 00:51:00;;;;;;;11.57;10.60;;;;;;;5.40;100.00;20407.56;5071884;28;20207;-63
2022/12/03 00:53:28;;;;;;;12.97;11.63;;;;;;;5.41;100.00;21683.53;5071458;28;20181;-62
2022/12/03 00:55:55;;;;;;;11.40;10.30;;;;;;;5.37;100.00;22320.03;5071345;28;20220;-63
2022/12/03 00:58:22;;;;;;;12.70;11.47;;;;;;;5.29;100.00;22954.47;5071909;28;20189;-64
2022/12/03 01:00:49;;;;;;;10.70;9.80;;;;;;;5.36;100.00;23914.75;5071539;28;20195;-63
2022/12/03 01:03:16;;;;;;;11.27;10.17;;;;;;;5.34;100.00;24871.66;5071799;28;20185;-63
2022/12/03 01:05:43;;;;;;;11.67;10.67;;;;;;;5.31;100.00;24550.84;5071781;28;20196;-62
2022/12/03 01:08:10;;;;;;;11.17;10.17;;;;;;;5.23;100.00;23909.00;5071577;28;20185;-61
2022/12/03 01:10:38;;;;;;;11.03;9.93;;;;;;;5.28;100.00;23273.06;5071550;28;20238;-62
2022/12/03 01:13:05;;;;;;;11.57;10.47;;;;;;;5.23;100.00;22633.16;5071307;28;20241;-64
2022/12/03 01:15:32;;;;;;;11.60;10.50;;;;;;;5.33;100.00;22318.16;5071566;28;20215;-62
2022/12/03 01:17:59;;;;;;;12.83;11.00;;;;;;;5.20;100.00;21037.38;5071640;28;20532;-63
2022/12/03 01:20:25;;;;;;;9.83;9.20;;;;;;;5.12;100.00;18803.75;5071184;28;20189;-63
2022/12/03 01:22:52;;;;;;;11.80;10.60;;;;;;;5.03;100.00;15935.72;5071383;28;20193;-62
2022/12/03 01:25:19;;;;;;;11.50;10.50;;;;;;;5.09;100.00;15937.44;5071526;28;20212;-64
2022/12/03 01:27:47;;;;;;;10.23;9.43;;;;;;;5.06;100.00;14982.13;5071541;28;20207;-64
2022/12/03 01:30:15;;;;;;;11.03;10.03;;;;;;;5.07;100.00;14027.97;5070635;28;20192;-63
2022/12/03 01:32:41;;;;;;;10.30;9.40;;;;;;;5.04;100.00;13709.28;5071425;28;20567;-63
2022/12/03 01:35:08;;;;;;;9.70;8.97;;;;;;;5.06;100.00;13391.81;5071018;28;20264;-62
2022/12/03 01:37:35;;;;;;;9.40;8.70;;;;;;;5.18;100.00;13076.75;5071245;28;20659;-63
2022/12/03 01:40:02;;;;;;;10.30;9.50;;;;;;;5.21;100.00;13713.81;5074809;28;20635;-63
2022/12/03 01:42:32;;;;;;;9.17;8.50;;;;;;;5.07;100.00;14664.28;5074463;28;20181;-63
2022/12/03 01:45:01;;;;;;;10.30;9.27;;;;;;;5.19;100.00;14667.47;5074461;28;20279;-63
2022/12/03 01:47:31;;;;;;;9.47;8.77;;;;;;;5.22;100.00;15304.78;5074424;28;20196;-64
2022/12/03 01:50:02;;;;;;;8.83;8.23;;;;;;;4.95;100.00;16251.41;5074465;28;20232;-63
2022/12/03 01:52:32;;;;;;;10.30;9.53;;;;;;;5.29;100.00;15306.91;5074490;28;20195;-65
2022/12/03 01:55:02;;;;;;;10.07;9.37;;;;;;;5.25;100.00;14987.44;5074084;28;20193;-62
2022/12/03 01:57:33;;;;;;;10.40;9.47;;;;;;;5.27;100.00;14669.81;5074864;28;20621;-63
2022/12/03 02:00:02;;;;;;;10.83;9.77;;;;;;;5.25;100.00;15305.69;5074513;28;20185;-63
2022/12/03 02:02:30;;;;;;;13.20;9.83;;;;;;;5.24;100.00;14668.94;5074525;28;20185;-63
2022/12/03 02:04:57;;;;;;;10.53;9.47;;;;;;;5.32;100.00;14034.84;5074281;28;20181;-62
2022/12/03 02:07:26;;;;;;;10.57;9.57;;;;;;;5.35;100.00;13717.66;5074530;28;20642;-63
2022/12/03 02:09:54;;;;;;;10.97;10.03;;;;;;;5.23;100.00;13078.09;5074415;28;20196;-64
2022/12/03 02:12:25;;;;;;;11.30;10.27;;;;;;;5.44;100.00;12765.50;5074300;28;20195;-62
2022/12/03 02:14:53;;;;;;;11.10;9.93;;;;;;;5.26;100.00;13397.09;5074378;28;20189;-63
2022/12/03 02:17:21;;;;;;;10.90;10.10;;;;;;;5.46;100.00;13402.34;5074050;28;20694;-63
2022/12/03 02:19:48;;;;;;;10.73;9.70;;;;;;;5.31;100.00;14352.75;5073878;28;20192;-63
2022/12/03 02:22:27;;;;;;;10.73;9.67;;;;;;;5.31;100.00;13716.56;5074004;28;20204;-63
2022/12/03 02:24:58;;;;;;;11.07;10.07;;;;;;;5.33;100.00;13398.84;5073883;28;20276;-63
2022/12/03 02:27:28;;;;;;;11.37;10.00;;;;;;;5.31;100.00;13080.19;5074027;28;20619;-62
2022/12/03 02:29:55;;;;;;;10.00;9.10;;;;;;;5.33;100.00;12126.59;5073998;28;20187;-63
2022/12/03 02:32:23;;;;;;;11.33;10.27;;;;;;;5.38;100.00;11809.84;5074284;28;20620;-63
2022/12/03 02:34:51;;;;;;;10.63;9.73;;;;;;;5.40;100.00;11810.34;5073586;28;20685;-63
2022/12/03 02:37:23;;;;;;;10.30;9.43;;;;;;;5.36;100.00;12445.38;5074493;28;20242;-63
2022/12/03 02:39:54;;;;;;;12.70;10.07;;;;;;;5.38;100.00;13082.06;5073423;28;20567;-63
2022/12/03 02:42:38;;;;;;;10.83;9.73;;;;;;;5.39;100.00;12764.34;5073570;28;20181;-64
2022/12/03 02:45:10;;;;;;;10.07;9.20;;;;;;;5.39;100.00;12764.22;5072784;28;20253;-63
2022/12/03 02:47:44;;;;;;;9.53;8.73;;;;;;;5.41;100.00;12446.66;5073868;28;20563;-63
2022/12/03 02:50:14;;;;;;;10.93;9.83;;;;;;;5.35;100.00;12763.31;5072438;28;20237;-63
2022/12/03 02:52:42;;;;;;;9.73;8.83;;;;;;;5.34;100.00;12444.88;5073635;28;20189;-63
2022/12/03 02:55:10;;;;;;;10.00;9.13;;;;;;;5.35;100.00;12763.19;5073296;28;20185;-64
2022/12/03 02:57:39;;;;;;;10.13;9.43;;;;;;;5.35;100.00;12763.31;5073421;28;20667;-62
2022/12/03 03:00:10;;;;;;;10.33;9.47;;;;;;;5.41;100.00;12128.59;5073173;28;20193;-63
2022/12/03 03:02:39;;;;;;;10.00;9.20;;;;;;;5.45;100.00;12447.81;5073504;28;20582;-62
2022/12/03 03:05:10;;;;;;;10.17;9.30;;;;;;;5.36;100.00;12445.38;5073270;28;20528;-62
2022/12/03 03:07:38;;;;;;;14.27;9.37;;;;;;;5.40;100.00;12764.47;5073317;28;20242;-62
2022/12/03 03:10:07;;;;;;;9.73;8.87;;;;;;;5.44;100.00;13401.81;5073173;28;20670;-63
2022/12/03 03:12:34;;;;;;;9.63;8.93;;;;;;;5.40;100.00;14673.75;5073308;28;20188;-62
2022/12/03 03:15:01;;;;;;;9.40;8.60;;;;;;;5.39;100.00;14673.31;5072994;28;20560;-63
2022/12/03 03:17:29;;;;;;;10.13;9.17;;;;;;;5.38;100.00;14354.75;5072764;28;20204;-63
2022/12/03 03:19:56;;;;;;;9.23;8.43;;;;;;;5.31;100.00;13398.28;5072499;28;20192;-62
2022/12/03 03:22:33;;;;;;;9.40;8.70;;;;;;;5.46;100.00;12448.06;5072640;28;20189;-63
2022/12/03 03:24:59;;;;;;;9.03;8.27;;;;;;;5.52;100.00;13722.19;5072570;28;20189;-63
2022/12/03 03:27:27;;;;;;;8.57;7.97;;;;;;;5.57;100.00;14996.78;5072809;28;20176;-62
2022/12/03 03:29:55;;;;;;;10.23;9.30;;;;;;;5.57;100.00;16270.75;5072446;28;20276;-63
2022/12/03 03:32:22;;;;;;;11.90;8.70;;;;;;;5.49;100.00;17861.00;5072804;28;20191;-63
2022/12/03 03:34:50;;;;;;;10.10;9.30;;;;;;;5.41;100.00;19133.03;5072754;28;20212;-63
2022/12/03 03:37:18;;;;;;;9.83;8.80;;;;;;;5.52;100.00;19774.47;5072633;28;20211;-63
2022/12/03 03:39:45;;;;;;;9.90;9.00;;;;;;;5.56;100.00;21370.59;5071242;28;20195;-63
2022/12/03 03:42:12;;;;;;;16.10;9.70;;;;;;;5.59;100.00;21052.59;5072858;28;20575;-62
2022/12/03 03:44:39;;;;;;;10.70;9.20;;;;;;;5.52;100.00;20412.19;5072819;28;20207;-63
2022/12/03 03:47:06;;;;;;;10.00;9.00;;;;;;;5.51;100.00;20730.72;5072466;28;20188;-63
2022/12/03 03:49:34;;;;;;;9.37;8.57;;;;;;;5.57;100.00;21370.81;5072302;28;20232;-63
2022/12/03 03:52:02;;;;;;;9.27;8.47;;;;;;;5.56;100.00;22965.81;5072446;28;20185;-63
2022/12/03 03:54:29;;;;;;;9.67;8.87;;;;;;;5.48;100.00;23281.72;5072517;28;20181;-62
2022/12/03 03:56:56;;;;;;;10.23;9.23;;;;;;;5.38;100.00;22001.47;5071889;28;20303;-63
2022/12/03 03:59:23;;;;;;;9.70;9.00;;;;;;;5.49;100.00;21686.78;5072285;28;20195;-62
2022/12/03 04:01:50;;;;;;;10.87;9.33;;;;;;;5.45;100.00;21047.47;5071999;28;20195;-63
2022/12/03 04:04:19;;;;;;;10.30;9.33;;;;;;;5.54;100.00;22326.94;5072198;28;20196;-62
2022/12/03 04:06:47;;;;;;;10.13;8.93;;;;;;;5.44;100.00;22961.09;5073108;28;20212;-62
2022/12/03 04:09:17;;;;;;;9.63;8.80;;;;;;;5.39;100.00;24554.47;5072276;28;20184;-63
2022/12/03 04:14:28;;;;;;;8.47;7.87;;;;;;;5.31;100.00;23274.59;5072132;28;20307;-63
2022/12/03 04:16:55;;;;;;;8.37;7.80;;;;;;;5.21;100.00;22951.06;5072168;28;20226;-62
2022/12/03 04:19:22;;;;;;;8.27;7.63;;;;;;;5.20;100.00;21675.00;5072163;28;20189;-62
2022/12/03 04:24:34;;;;;;;9.10;8.20;;;;;;;5.22;100.00;19763.22;5072121;28;20176;-63
2022/12/03 04:29:47;;;;;;;8.63;7.90;;;;;;;5.26;100.00;19446.22;5072693;28;20180;-62
2022/12/03 04:37:44;;;;;;;8.77;7.97;;;;;;;5.40;100.00;22002.09;5046355;28;20270;-63
2022/12/03 04:42:54;;;;;;;7.97;7.37;;;;;;;5.40;100.00;22640.13;5072496;28;20204;-62
2022/12/03 04:45:20;;;;;;;8.00;7.50;;;;;;;5.28;100.00;21678.44;5072680;28;20191;-63
2022/12/03 04:47:47;;;;;;;7.80;7.30;;;;;;;5.33;100.00;19448.63;5072393;28;20181;-63
2022/12/03 04:50:16;;;;;;;9.47;7.50;;;;;;;5.24;100.00;19126.66;5071780;28;20236;-62
2022/12/03 04:52:43;;;;;;;14.90;8.40;;;;;;;5.29;100.00;19128.66;5071734;28;20188;-62
2022/12/03 04:55:10;;;;;;;8.10;7.30;;;;;;;5.28;100.00;18809.50;5071864;28;20188;-63
2022/12/03 04:57:38;;;;;;;7.60;7.10;;;;;;;5.29;100.00;19447.16;5071430;28;20212;-64
2022/12/03 05:00:06;;;;;;;8.90;7.70;;;;;;;5.24;100.00;21357.97;5071481;28;20189;-62
2022/12/03 05:02:33;;;;;;;8.33;7.87;;;;;;;5.26;100.00;22315.44;5071715;28;20636;-63
2022/12/03 05:05:00;;;;;;;7.90;7.40;;;;;;;5.29;100.00;24549.94;5071719;28;20620;-62
2022/12/03 05:07:27;;;;;;;6.73;6.33;;;;;;;5.25;100.00;27102.53;5071625;28;20185;-64
2022/12/03 05:09:54;;;;;;;7.57;7.03;;;;;;;5.34;100.00;25190.66;5071629;28;20552;-62
2022/12/03 05:12:21;;;;;;;7.07;6.67;;;;;;;5.38;100.00;26150.50;5071964;28;20185;-63
2022/12/03 05:14:49;;;;;;;6.67;6.17;;;;;;;5.47;100.00;26793.94;5074488;28;20181;-62
2022/12/03 05:17:17;;;;;;;7.27;6.67;;;;;;;5.50;100.00;27434.22;5075221;28;20204;-63
2022/12/03 05:22:28;;;;;;;7.87;7.33;;;;;;;5.68;100.00;29681.56;5075312;28;20180;-63
2022/12/03 05:24:55;;;;;;;8.67;7.90;;;;;;;5.68;100.00;30641.31;5075260;28;20184;-64
2022/12/03 05:27:22;;;;;;;9.67;7.53;;;;;;;5.69;100.00;30001.97;5075707;28;20620;-62
2022/12/03 05:29:50;;;;;;;7.43;7.03;;;;;;;5.70;100.00;30322.44;5075031;28;20181;-63
2022/12/03 05:32:18;;;;;;;9.80;7.63;;;;;;;5.74;100.00;32885.00;5075157;28;20199;-63
2022/12/03 05:34:45;;;;;;;7.87;7.27;;;;;;;5.76;100.00;36410.38;5074993;28;20189;-63
2022/12/03 05:37:12;;;;;;;8.17;7.57;;;;;;;5.77;100.00;37052.19;5074725;28;20209;-64
2022/12/03 05:39:39;;;;;;;8.23;7.70;;;;;;;5.68;100.00;36405.50;5074564;28;20532;-64
2022/12/03 05:44:51;;;;;;;8.80;8.00;;;;;;;5.68;100.00;38970.53;5074655;28;20617;-63
2022/12/03 05:47:18;;;;;;;8.70;8.20;;;;;;;5.76;100.00;40259.50;5074591;28;20180;-63
2022/12/03 05:49:45;;;;;;;11.77;8.20;;;;;;;5.83;100.00;40585.47;5074433;28;20243;-63
2022/12/03 05:52:11;;;;;;;10.30;9.37;;;;;;;5.84;100.00;39623.34;5075228;28;20555;-63
2022/12/03 05:54:38;;;;;;;29.67;10.53;;;;;;;5.80;100.00;38978.84;5074568;28;20635;-63
2022/12/03 05:57:05;;;;;;;10.87;8.87;;;;;;;5.79;100.00;39940.72;5074575;28;20208;-62
2022/12/03 05:59:33;;;;;;;16.53;9.20;;;;;;;5.80;100.00;38658.06;5074699;28;20267;-63
2022/12/03 06:02:01;;;;;;;12.03;9.00;;;;;;;5.82;100.00;37697.16;5074525;28;20626;-63
2022/12/03 06:04:28;;;;;;;10.57;8.83;;;;;;;5.90;100.00;38664.94;5074400;28;20189;-62
2022/12/03 06:06:55;;;;;;;15.03;9.87;;;;;;;5.83;100.00;38660.09;5074525;28;20207;-64
2022/12/03 06:09:22;;;;;;;11.47;8.37;;;;;;;6.01;100.00;38993.06;5074264;28;20188;-62
2022/12/03 06:11:52;;;;;;;10.83;9.70;;;;;;;5.98;100.00;42523.22;5074240;28;20295;-62
2022/12/03 06:14:19;;;;;;;10.77;9.13;;;;;;;5.96;100.00;42521.72;5074863;28;20627;-63
2022/12/03 06:16:46;;;;;;;10.60;9.33;;;;;;;5.92;100.00;43482.13;5073833;28;20259;-63
2022/12/03 06:19:14;;;;;;;15.60;10.03;;;;;;;5.83;100.00;43796.88;5074231;28;20196;-63
2022/12/03 06:21:41;;;;;;;18.73;10.83;;;;;;;5.80;100.00;45079.94;5073926;28;20188;-63
2022/12/03 06:24:08;;;;;;;10.90;9.83;;;;;;;5.71;100.00;45072.78;5073760;28;20185;-63
2022/12/03 06:26:35;;;;;;;10.57;9.57;;;;;;;5.50;100.00;46020.38;5074196;28;20501;-63
2022/12/03 06:29:02;;;;;;;11.13;9.80;;;;;;;5.42;100.00;42160.59;5072556;28;20181;-63
2022/12/03 06:31:29;;;;;;;11.70;9.97;;;;;;;5.36;100.00;36384.69;5074012;28;20189;-63
2022/12/03 06:33:56;;;;;;;10.80;9.80;;;;;;;5.47;100.00;34149.81;5073783;28;20185;-63
2022/12/03 06:36:25;;;;;;;10.80;9.90;;;;;;;5.54;100.00;35114.91;5074025;28;20575;-63
2022/12/03 06:38:52;;;;;;;10.60;9.40;;;;;;;5.46;100.00;35430.47;5073474;28;20240;-63
2022/12/03 06:41:19;;;;;;;10.07;9.13;;;;;;;5.57;100.00;35757.50;5073788;28;20192;-63
2022/12/03 06:43:46;;;;;;;15.50;9.73;;;;;;;5.70;100.00;37688.78;5073952;28;20185;-62
2022/12/03 06:46:13;;;;;;;10.10;9.30;;;;;;;5.63;100.00;41212.94;5073205;28;20211;-64
2022/12/03 06:48:39;;;;;;;11.57;9.63;;;;;;;5.58;100.00;41209.28;5073936;28;20188;-64
2022/12/03 06:51:06;;;;;;;9.47;8.87;;;;;;;5.44;100.00;41199.44;5072168;28;20192;-62
2022/12/03 06:53:35;;;;;;;30.17;11.63;;;;;;;5.29;100.00;39264.09;5073834;28;20189;-64
2022/12/03 06:56:02;;;;;;;10.40;9.43;;;;;;;5.26;100.00;34137.25;5073255;28;20185;-63
2022/12/03 06:58:28;;;;;;;10.73;9.63;;;;;;;5.36;100.00;30303.78;5073676;28;20277;-63
2022/12/03 07:00:55;;;;;;;13.47;9.47;;;;;;;5.42;100.00;28069.31;5073301;28;20197;-63
2022/12/03 07:03:22;;;;;;;10.90;9.80;;;;;;;5.34;100.00;28385.03;5073291;28;20559;-63
2022/12/03 07:05:49;;;;;;;11.00;9.90;;;;;;;5.59;100.00;30636.03;5073178;28;20203;-64
2022/12/03 07:08:16;;;;;;;11.77;9.00;;;;;;;5.52;100.00;35113.94;5073005;28;20184;-62
2022/12/03 07:10:44;;;;;;;10.37;9.47;;;;;;;5.60;100.00;36079.53;5073259;28;20191;-63
2022/12/03 07:13:11;;;;;;;11.70;10.07;;;;;;;5.60;100.00;37682.06;5072952;28;20195;-62
2022/12/03 07:15:39;;;;;;;11.97;9.70;;;;;;;5.73;100.00;38332.50;5072848;28;20195;-62
2022/12/03 07:18:06;;;;;;;29.30;11.53;;;;;;;5.71;100.00;39613.88;5072753;28;20212;-63
2022/12/03 07:20:33;;;;;;;11.20;10.10;;;;;;;5.74;100.00;41220.56;5072591;28;20181;-63
2022/12/03 07:23:00;;;;;;;11.40;9.83;;;;;;;5.80;100.00;41867.44;5073151;28;20187;-63
2022/12/03 07:25:27;;;;;;;13.50;9.90;;;;;;;5.80;100.00;43794.56;5072628;28;20188;-63
2022/12/03 07:27:56;;;;;;;20.40;10.63;;;;;;;5.77;100.00;41544.16;5072475;28;20189;-64
2022/12/03 07:30:24;;;;;;;11.60;10.40;;;;;;;5.31;100.00;46326.25;5072895;28;20188;-63
2022/12/03 07:32:51;;;;;;;12.07;10.87;;;;;;;5.64;100.00;42497.69;5072507;28;20195;-63
2022/12/03 07:35:18;;;;;;;11.27;10.13;;;;;;;5.62;100.00;42817.25;5072671;28;20770;-63
2022/12/03 07:37:45;;;;;;;12.00;10.90;;;;;;;5.55;100.00;40565.34;5071724;28;20209;-63
2022/12/03 07:40:13;;;;;;;12.73;11.13;;;;;;;5.88;100.00;42194.53;5073117;28;20231;-63
2022/12/03 07:42:42;;;;;;;13.93;10.90;;;;;;;5.94;100.00;45091.03;5072531;28;20189;-63
2022/12/03 07:45:11;;;;;;;12.77;11.47;;;;;;;6.12;100.00;47999.88;5072270;28;20220;-63
2022/12/03 07:47:38;;;;;;;16.90;10.77;;;;;;;6.17;100.00;49291.81;5072577;28;20211;-62
2022/12/03 07:50:06;;;;;;;13.30;10.80;;;;;;;6.32;100.00;50593.31;5072076;28;20235;-63
2022/12/03 07:52:33;;;;;;;19.37;10.23;;;;;;;6.15;100.00;59286.75;5072392;28;20193;-64
2022/12/03 07:55:00;;;;;;;15.60;11.27;;;;;;;6.17;100.00;57674.47;5072433;28;20192;-64
2022/12/03 07:57:26;;;;;;;11.83;10.17;;;;;;;6.27;100.00;58652.66;5071858;28;20215;-62
2022/12/03 07:59:53;;;;;;;11.00;9.90;;;;;;;6.35;100.00;62215.44;5071926;28;20215;-62
2022/12/03 08:02:21;;;;;;;11.37;10.20;;;;;;;6.60;100.00;62565.31;5072678;28;20185;-64
2022/12/03 08:04:48;;;;;;;10.73;9.77;;;;;;;6.73;100.00;66464.22;5072232;28;20568;-62
2022/12/03 08:07:15;;;;;;;10.47;9.47;;;;;;;6.76;100.00;68088.31;5072373;28;20184;-63
2022/12/03 08:09:42;;;;;;;10.20;9.33;;;;;;;6.72;100.00;74570.50;5072202;28;20552;-63
2022/12/03 08:12:16;;;;;;;11.47;9.67;;;;;;;6.91;100.00;78168.75;5072147;28;20255;-63
2022/12/03 08:14:43;;;;;;;17.57;10.90;;;;;;;6.86;100.00;78812.94;5071933;28;20189;-63
2022/12/03 08:17:12;;;;;;;10.87;9.87;;;;;;;7.02;100.00;74608.41;5071092;28;20224;-63
2022/12/03 08:19:45;;;;;;;10.17;9.10;;;;;;;7.11;100.00;84054.75;5071769;28;20185;-63
2022/12/03 08:22:13;;;;;;;17.23;9.90;;;;;;;7.14;100.00;92214.47;5072067;28;20627;-64
2022/12/03 08:24:41;;;;;;;10.10;9.40;;;;;;;7.11;100.00;96130.63;5071862;28;20301;-62
2022/12/03 08:27:17;;;;;;;10.70;9.60;;;;;;;7.29;100.00;104673.31;5071784;28;20200;-62
2022/12/03 08:29:44;;;;;;;9.73;8.87;;;;;;;7.35;100.00;114204.91;5071572;28;20189;-64
2022/12/03 08:32:12;;;;;;;10.83;9.73;;;;;;;7.42;100.00;130777.00;5071665;28;20188;-63
2022/12/03 08:34:42;;;;;;;11.07;9.93;;;;;;;7.50;100.00;143897.38;5071705;28;20188;-63
2022/12/03 08:37:15;;;;;;;17.37;10.70;;;;;;;7.46;100.00;145389.00;5071986;28;20564;-63
2022/12/03 08:39:45;;;;;;;18.27;10.57;;;;;;;7.54;100.00;134963.19;5071549;28;20264;-63
2022/12/03 08:45:38;;;;;;;11.50;10.40;;;;;;;7.62;100.00;143246.63;5071908;28;20230;-63
2022/12/03 08:48:21;;;;;;;11.37;10.07;;;;;;;7.47;100.00;143348.66;5074714;28;20641;-63
2022/12/03 08:50:50;;;;;;;10.90;9.73;;;;;;;7.54;100.00;147940.75;5075509;28;20584;-63
2022/12/03 08:53:27;;;;;;;10.70;9.67;;;;;;;7.74;100.00;147992.44;5075361;28;20272;-63
2022/12/03 08:55:56;;;;;;;11.33;10.13;;;;;;;7.86;100.00;148020.19;5075393;28;20275;-63
2022/12/03 08:58:26;;;;;;;11.73;10.60;;;;;;;7.90;100.00;148030.28;5075473;28;20205;-63
2022/12/03 09:00:57;;;;;;;12.53;10.43;;;;;;;8.08;100.00;148075.69;5075495;28;20185;-63
2022/12/03 09:03:24;;;;;;;11.67;10.63;;;;;;;8.00;100.00;148055.50;5075413;28;20341;-63
2022/12/03 09:05:52;;;;;;;12.33;10.53;;;;;;;8.28;100.00;148126.16;5076345;28;20204;-62
2022/12/03 09:08:20;;;;;;;12.77;10.37;;;;;;;8.27;100.00;148123.66;5076249;28;20556;-64
2022/12/03 09:10:46;;;;;;;11.77;10.77;;;;;;;8.17;100.00;148098.41;5075171;28;20189;-63
2022/12/03 09:13:13;;;;;;;14.23;11.47;;;;;;;8.19;100.00;148104.69;5075123;28;20216;-64
2022/12/03 09:15:40;;;;;;;19.10;12.10;;;;;;;8.39;100.00;148152.72;5075072;28;20271;-63
2022/12/03 09:18:07;;;;;;;12.23;11.03;;;;;;;8.41;100.00;148159.00;5075012;28;20212;-62
2022/12/03 09:20:34;;;;;;;12.87;11.27;;;;;;;8.27;100.00;148124.88;5074196;28;20662;-64
2022/12/03 09:23:03;;;;;;;16.30;11.33;;;;;;;8.33;100.00;148138.81;5075166;28;20264;-63
2022/12/03 09:25:30;;;;;;;23.47;11.67;;;;;;;8.57;100.00;148198.16;5075302;28;20181;-63
2022/12/03 09:27:57;;;;;;;14.47;11.47;;;;;;;8.54;100.00;148191.81;5075249;28;20623;-64
2022/12/03 09:30:24;;;;;;;20.40;12.60;;;;;;;8.59;100.00;148204.44;5074712;28;20191;-63
2022/12/03 09:32:51;;;;;;;18.47;12.37;;;;;;;8.65;100.00;148219.63;5074630;28;20184;-63
2022/12/03 09:35:18;;;;;;;15.47;11.70;;;;;;;8.49;100.00;148177.91;5075520;28;20516;-62
2022/12/03 09:37:45;;;;;;;13.87;11.40;;;;;;;8.28;100.00;148126.16;5075152;28;20632;-62
2022/12/03 09:40:15;;;;;;;12.87;11.63;;;;;;;8.50;100.00;148180.47;5074381;28;20556;-63
2022/12/03 09:42:42;;;;;;;12.30;11.13;;;;;;;8.68;100.00;148227.16;5074772;28;20653;-63
2022/12/03 09:45:11;;;;;;;13.80;11.37;;;;;;;8.86;100.00;148271.34;5075023;28;20181;-63
2022/12/03 09:47:40;;;;;;;14.80;11.33;;;;;;;8.64;100.00;148215.81;5075032;28;20596;-62
2022/12/03 09:50:13;;;;;;;11.97;10.77;;;;;;;8.60;100.00;148206.97;5074893;28;20236;-64
2022/12/03 09:52:39;;;;;;;13.10;11.90;;;;;;;8.53;100.00;148188.06;5074520;28;20188;-63
2022/12/03 09:55:13;;;;;;;12.40;11.03;;;;;;;8.42;100.00;148161.53;5074759;28;20199;-64
2022/12/03 09:57:45;;;;;;;19.33;11.27;;;;;;;8.78;100.00;148251.16;5074777;28;20193;-63
2022/12/03 10:00:17;;;;;;;13.23;11.70;;;;;;;8.94;100.00;148290.28;5073890;28;20674;-63
2022/12/03 10:02:45;;;;;;;15.07;12.80;;;;;;;8.93;100.00;148289.00;5074804;28;20603;-63
2022/12/03 10:05:12;;;;;;;19.07;14.00;;;;;;;8.96;100.00;148295.31;5074495;28;20196;-63
2022/12/03 10:07:40;;;;;;;17.73;11.37;;;;;;;8.91;100.00;148282.72;5075152;28;20192;-63
2022/12/03 10:10:14;;;;;;;13.53;11.27;;;;;;;8.77;100.00;148248.63;5074521;28;20185;-63
2022/12/03 10:12:42;;;;;;;18.47;11.70;;;;;;;8.97;100.00;148297.84;5074506;28;20191;-62
2022/12/03 10:15:12;;;;;;;38.37;13.67;;;;;;;9.04;100.00;148316.75;5073294;28;20184;-63
2022/12/03 10:17:39;;;;;;;12.03;11.07;;;;;;;8.94;100.00;148291.53;5074451;28;20691;-63
2022/12/03 10:20:10;;;;;;;13.90;11.60;;;;;;;9.04;100.00;148315.50;5074116;28;20216;-63
2022/12/03 10:22:37;;;;;;;17.50;11.90;;;;;;;9.10;100.00;148331.94;5074207;28;20196;-62
2022/12/03 10:25:07;;;;;;;13.20;11.87;;;;;;;8.77;100.00;148247.34;5074250;28;20185;-63
2022/12/03 10:27:34;;;;;;;13.30;11.93;;;;;;;8.99;100.00;148302.91;5073978;28;20185;-63
2022/12/03 10:30:11;;;;;;;15.07;11.83;;;;;;;9.07;100.00;148323.09;5074222;28;20185;-63
2022/12/03 10:32:43;;;;;;;13.00;10.87;;;;;;;9.04;100.00;148316.75;5073819;28;20234;-64
2022/12/03 10:35:13;;;;;;;13.70;11.00;;;;;;;8.96;100.00;148295.31;5073519;28;20192;-63
2022/12/03 10:37:58;;;;;;;15.80;11.63;;;;;;;9.02;100.00;148311.75;5073735;28;20188;-63
2022/12/03 10:40:26;;;;;;;13.87;10.67;;;;;;;9.05;100.00;148318.03;5073816;28;20242;-63
2022/12/03 10:43:12;;;;;;;11.50;10.53;;;;;;;8.95;100.00;148292.81;5073664;28;20189;-64
2022/12/03 10:45:41;;;;;;;12.43;11.13;;;;;;;8.87;100.00;148272.63;5073653;28;20192;-63
2022/12/03 10:48:13;;;;;;;12.47;10.57;;;;;;;8.89;100.00;148277.66;5074202;28;20550;-63
2022/12/03 10:50:48;;;;;;;11.87;10.57;;;;;;;9.03;100.00;148314.28;5073403;28;20580;-63
2022/12/03 10:53:15;;;;;;;11.90;10.73;;;;;;;9.11;100.00;148334.47;5074186;28;20259;-63
2022/12/03 10:55:44;;;;;;;13.53;11.63;;;;;;;9.00;100.00;148306.66;5073651;28;20208;-63
2022/12/03 10:58:19;;;;;;;12.17;10.87;;;;;;;8.49;100.00;148179.19;5073741;28;20238;-63
2022/12/03 11:00:48;;;;;;;13.33;11.07;;;;;;;8.50;100.00;148181.72;5073477;28;20662;-64
2022/12/03 11:03:21;;;;;;;15.87;11.40;;;;;;;8.68;100.00;148227.16;5073473;28;20189;-63
2022/12/03 11:05:49;;;;;;;13.20;11.07;;;;;;;8.71;100.00;148234.72;5073265;28;20663;-62
2022/12/03 11:08:18;;;;;;;11.87;10.80;;;;;;;8.93;100.00;148289.00;5073237;28;20184;-63
2022/12/03 11:10:45;;;;;;;11.63;10.47;;;;;;;9.00;100.00;148305.41;5072449;28;20275;-63
2022/12/03 11:13:44;;;;;;;13.40;11.73;;;;;;;9.13;100.00;148339.50;5073238;28;20547;-63
2022/12/03 11:16:14;;;;;;;14.93;11.20;;;;;;;9.21;100.00;148358.44;5011222;28;20590;-64
2022/12/03 11:19:02;;;;;;;32.57;13.30;;;;;;;9.25;100.00;148368.53;5059986;28;20228;-63
2022/12/03 11:21:29;;;;;;;15.10;11.73;;;;;;;8.89;100.00;148278.91;5072881;28;20200;-63
2022/12/03 11:24:18;;;;;;;12.90;10.80;;;;;;;8.99;100.00;148302.91;5073061;28;20192;-63
2022/12/03 11:27:08;;;;;;;12.37;11.10;;;;;;;8.85;100.00;148267.56;5068588;28;20572;-64
2022/12/03 11:29:59;;;;;;;13.20;10.13;;;;;;;8.36;100.00;148145.16;5073131;28;20181;-63
2022/12/03 11:33:05;;;;;;;12.57;11.40;;;;;;;8.21;100.00;146030.41;5072570;28;20196;-63
2022/12/03 11:36:07;;;;;;;11.90;10.90;;;;;;;8.41;100.00;140149.34;5042928;28;20226;-63
2022/12/03 11:38:56;;;;;;;13.53;11.37;;;;;;;8.32;100.00;134535.00;5053744;28;20220;-63
2022/12/03 11:41:29;;;;;;;15.00;11.93;;;;;;;8.48;100.00;132915.78;5072970;28;20611;-63
2022/12/03 11:44:15;;;;;;;16.60;11.60;;;;;;;8.58;100.00;135112.31;5073134;28;20189;-64
2022/12/03 11:46:45;;;;;;;15.43;13.50;;;;;;;8.63;100.00;123028.03;5073105;28;20184;-63
2022/12/03 11:49:32;;;;;;;12.77;11.43;;;;;;;8.60;100.00;144137.63;5072630;28;20236;-62
2022/12/03 11:52:04;;;;;;;11.97;10.67;;;;;;;8.76;100.00;148244.81;5073470;28;20197;-64
2022/12/03 11:54:35;;;;;;;13.17;11.23;;;;;;;8.79;100.00;148252.38;5072666;28;20196;-64